createdAt,value
2023-04-18T00:01:10.018Z,12.20
2023-04-18T00:03:38.982Z,12.10
2023-04-18T00:06:06.946Z,12.00
2023-04-18T00:08:34.354Z,12.00
2023-04-18T00:11:03.702Z,12.00
2023-04-18T00:13:31.963Z,11.90
2023-04-18T00:15:59.523Z,11.90
2023-04-18T00:18:27.908Z,12.00
2023-04-18T00:20:56.208Z,12.00
2023-04-18T00:23:23.599Z,11.90
2023-04-18T00:25:50.996Z,11.90
2023-04-18T00:28:18.350Z,11.80
2023-04-18T00:30:45.916Z,11.80
2023-04-18T00:33:14.589Z,11.70
2023-04-18T00:35:44.281Z,11.70
2023-04-18T00:38:11.745Z,11.60
2023-04-18T00:40:41.146Z,11.60
2023-04-18T00:43:09.388Z,11.50
2023-04-18T00:45:37.087Z,11.50
2023-04-18T00:48:04.739Z,11.60
2023-04-18T00:50:32.786Z,11.60
2023-04-18T00:53:00.396Z,11.70
2023-04-18T00:55:28.886Z,11.70
2023-04-18T00:57:56.306Z,11.60
2023-04-18T01:00:25.738Z,11.70
2023-04-18T01:02:55.839Z,11.80
2023-04-18T01:05:23.935Z,11.70
2023-04-18T01:07:52.147Z,11.80
2023-04-18T01:10:20.403Z,11.70
2023-04-18T01:12:50.272Z,11.80
2023-04-18T01:15:17.718Z,11.80
2023-04-18T01:17:45.077Z,11.70
2023-04-18T01:20:13.797Z,11.80
2023-04-18T01:22:42.137Z,12.00
2023-04-18T01:25:10.112Z,11.90
2023-04-18T01:27:37.460Z,11.90
2023-04-18T01:30:05.445Z,11.90
2023-04-18T01:32:32.844Z,11.80
2023-04-18T01:35:00.298Z,11.70
2023-04-18T01:37:27.671Z,11.80
2023-04-18T01:39:55.085Z,11.80
2023-04-18T01:42:22.532Z,11.80
2023-04-18T01:44:49.926Z,11.70
2023-04-18T01:47:17.312Z,11.70
2023-04-18T01:49:48.159Z,11.70
2023-04-18T01:52:16.164Z,11.50
2023-04-18T01:54:43.586Z,11.40
2023-04-18T01:57:11.000Z,11.40
2023-04-18T01:59:38.799Z,11.40
2023-04-18T02:02:06.323Z,11.40
2023-04-18T02:04:33.835Z,11.40
2023-04-18T02:07:01.215Z,11.40
2023-04-18T02:09:28.602Z,11.40
2023-04-18T02:11:59.296Z,11.50
2023-04-18T02:14:28.012Z,11.50
2023-04-18T02:16:55.611Z,11.60
2023-04-18T02:19:24.300Z,11.60
2023-04-18T02:21:52.111Z,11.70
2023-04-18T02:24:19.884Z,11.80
2023-04-18T02:26:47.664Z,11.80
2023-04-18T02:29:15.103Z,11.90
2023-04-18T02:31:42.616Z,12.00
2023-04-18T02:34:10.122Z,12.10
2023-04-18T02:36:37.509Z,12.10
2023-04-18T02:39:04.922Z,12.10
2023-04-18T02:41:32.368Z,12.20
2023-04-18T02:43:59.824Z,12.20
2023-04-18T02:46:27.295Z,12.20
2023-04-18T02:48:54.805Z,12.20
2023-04-18T02:51:27.614Z,12.20
2023-04-18T02:53:56.936Z,12.30
2023-04-18T02:56:28.500Z,12.20
2023-04-18T02:59:20.049Z,12.20
2023-04-18T03:02:07.704Z,12.20
2023-04-18T03:04:37.273Z,12.20
2023-04-18T03:07:07.486Z,12.20
2023-04-18T03:09:37.508Z,12.20
2023-04-18T03:12:13.407Z,12.20
2023-04-18T03:14:42.384Z,12.10
2023-04-18T03:17:09.930Z,12.10
2023-04-18T03:19:41.022Z,12.20
2023-04-18T03:22:11.219Z,12.10
2023-04-18T03:24:46.028Z,12.10
2023-04-18T03:27:13.761Z,12.10
2023-04-18T03:29:43.246Z,12.10
2023-04-18T03:32:11.465Z,12.10
2023-04-18T03:34:38.850Z,12.10
2023-04-18T03:37:08.542Z,12.10
2023-04-18T03:39:41.705Z,12.00
2023-04-18T03:42:09.211Z,12.10
2023-04-18T03:44:36.654Z,12.00
2023-04-18T03:47:04.768Z,12.10
2023-04-18T03:49:34.736Z,12.10
2023-04-18T03:52:03.492Z,12.20
2023-04-18T03:54:30.928Z,12.30
2023-04-18T03:56:59.447Z,12.20
2023-04-18T03:59:27.727Z,12.30
2023-04-18T04:01:56.177Z,12.30
2023-04-18T04:04:23.733Z,12.30
2023-04-18T04:06:51.716Z,12.30
2023-04-18T04:09:19.209Z,12.30
2023-04-18T04:11:46.630Z,12.30
2023-04-18T04:14:15.961Z,12.30
2023-04-18T04:16:46.419Z,12.10
2023-04-18T04:19:16.835Z,12.10
2023-04-18T04:21:52.981Z,12.00
2023-04-18T04:24:22.679Z,12.00
2023-04-18T04:26:51.470Z,12.00
2023-04-18T04:29:24.275Z,12.10
2023-04-18T04:31:53.109Z,12.10
2023-04-18T04:34:31.086Z,12.20
2023-04-18T04:37:00.836Z,12.10
2023-04-18T04:39:29.573Z,12.20
2023-04-18T04:42:12.259Z,12.20
2023-04-18T04:44:49.355Z,12.30
2023-04-18T04:47:17.511Z,12.30
2023-04-18T04:49:45.168Z,12.30
2023-04-18T04:52:17.558Z,12.40
2023-04-18T04:54:46.572Z,12.40
2023-04-18T04:57:16.413Z,12.40
2023-04-18T04:59:44.232Z,12.50
2023-04-18T05:02:11.765Z,12.60
2023-04-18T05:04:39.361Z,12.60
2023-04-18T05:07:06.799Z,12.60
2023-04-18T05:09:34.193Z,12.60
2023-04-18T05:12:01.931Z,12.70
2023-04-18T05:14:31.391Z,12.90
2023-04-18T05:16:59.516Z,13.00
2023-04-18T05:19:27.502Z,13.20
2023-04-18T05:21:54.900Z,13.40
2023-04-18T05:24:22.249Z,13.50
2023-04-18T05:26:49.668Z,13.60
2023-04-18T05:29:17.095Z,13.80
2023-04-18T05:31:44.549Z,13.90
2023-04-18T05:34:12.367Z,14.00
2023-04-18T05:36:39.962Z,14.10
2023-04-18T05:39:07.360Z,14.30
2023-04-18T05:41:34.831Z,14.40
2023-04-18T05:44:05.706Z,14.60
2023-04-18T05:46:44.541Z,14.70
2023-04-18T05:49:12.363Z,14.90
2023-04-18T05:51:39.755Z,15.00
2023-04-18T05:54:07.148Z,15.10
2023-04-18T05:56:34.596Z,15.40
2023-04-18T05:59:02.063Z,15.60
2023-04-18T06:01:29.423Z,15.90
2023-04-18T06:03:57.025Z,16.00
2023-04-18T06:06:24.868Z,16.30
2023-04-18T06:08:52.276Z,16.50
2023-04-18T06:11:21.274Z,16.60
2023-04-18T06:13:48.691Z,16.80
2023-04-18T06:16:16.240Z,17.20
2023-04-18T06:18:43.607Z,17.90
2023-04-18T06:21:11.032Z,18.90
2023-04-18T06:23:38.608Z,20.80
2023-04-18T06:26:07.438Z,22.40
2023-04-18T06:28:35.016Z,23.50
2023-04-18T06:31:02.622Z,24.40
2023-04-18T06:33:30.090Z,25.10
2023-04-18T06:35:58.053Z,25.70
2023-04-18T06:38:25.445Z,26.00
2023-04-18T06:40:53.021Z,26.30
2023-04-18T06:43:22.014Z,26.00
2023-04-18T06:45:49.438Z,25.60
2023-04-18T06:48:16.949Z,25.70
2023-04-18T06:50:44.837Z,26.40
2023-04-18T06:53:12.314Z,26.90
2023-04-18T06:55:40.791Z,28.00
2023-04-18T06:58:09.698Z,28.60
2023-04-18T07:00:37.029Z,29.10
2023-04-18T07:03:11.310Z,29.60
2023-04-18T07:05:39.896Z,30.20
2023-04-18T07:08:07.561Z,30.90
2023-04-18T07:10:35.006Z,30.60
2023-04-18T07:13:02.537Z,30.50
2023-04-18T07:15:30.066Z,30.70
2023-04-18T07:17:57.499Z,30.70
2023-04-18T07:20:24.879Z,30.70
2023-04-18T07:22:52.244Z,29.00
2023-04-18T07:25:19.763Z,28.10
2023-04-18T07:27:47.730Z,28.20
2023-04-18T07:30:15.348Z,28.30
2023-04-18T07:32:42.776Z,28.10
2023-04-18T07:35:10.589Z,28.40
2023-04-18T07:37:38.147Z,28.10
2023-04-18T07:40:06.271Z,28.20
2023-04-18T07:42:33.632Z,27.80
2023-04-18T07:45:01.035Z,27.50
2023-04-18T07:47:30.183Z,27.50
2023-04-18T07:49:58.271Z,27.20
2023-04-18T07:52:25.856Z,26.30
2023-04-18T07:54:53.305Z,25.10
2023-04-18T07:57:20.881Z,24.60
2023-04-18T07:59:48.329Z,24.50
2023-04-18T08:02:16.267Z,24.70
2023-04-18T08:04:43.833Z,24.70
2023-04-18T08:07:11.377Z,24.80
2023-04-18T08:09:38.961Z,25.10
2023-04-18T08:12:06.629Z,26.40
2023-04-18T08:14:34.061Z,27.40
2023-04-18T08:17:01.537Z,27.70
2023-04-18T08:19:28.911Z,26.90
2023-04-18T08:22:08.383Z,27.20
2023-04-18T08:24:35.933Z,28.30
2023-04-18T08:27:03.510Z,28.90
2023-04-18T08:29:31.213Z,28.30
2023-04-18T08:31:59.626Z,28.50
2023-04-18T08:34:28.834Z,29.30
2023-04-18T08:36:56.694Z,29.70
2023-04-18T08:39:25.414Z,30.00
2023-04-18T08:41:59.561Z,30.50
2023-04-18T08:44:30.668Z,30.60
2023-04-18T08:47:00.158Z,30.10
2023-04-18T08:49:28.396Z,29.60
2023-04-18T08:51:57.532Z,30.10
2023-04-18T08:54:27.309Z,29.80
2023-04-18T08:57:05.627Z,29.70
2023-04-18T08:59:35.708Z,29.50
2023-04-18T09:02:05.499Z,29.30
2023-04-18T09:04:34.492Z,30.70
2023-04-18T09:07:07.353Z,31.00
2023-04-18T09:09:47.553Z,31.50
2023-04-18T09:12:22.466Z,31.30
2023-04-18T09:14:56.613Z,31.50
2023-04-18T09:17:41.701Z,31.90
2023-04-18T09:20:10.912Z,31.40
2023-04-18T09:22:50.638Z,31.50
2023-04-18T09:25:46.728Z,32.00
2023-04-18T09:28:28.084Z,31.70
2023-04-18T09:31:13.403Z,31.90
2023-04-18T09:33:44.809Z,31.80
2023-04-18T09:36:19.710Z,32.00
2023-04-18T09:38:53.856Z,31.80
2023-04-18T09:41:23.695Z,31.60
2023-04-18T09:44:15.870Z,30.20
2023-04-18T09:46:47.098Z,30.00
2023-04-18T09:49:16.987Z,29.00
2023-04-18T09:51:46.064Z,28.10
2023-04-18T09:54:18.213Z,27.40
2023-04-18T09:56:45.937Z,26.90
2023-04-18T09:59:21.125Z,26.70
2023-04-18T10:01:50.883Z,26.30
2023-04-18T10:04:19.160Z,26.20
2023-04-18T10:06:47.037Z,25.90
2023-04-18T10:09:16.091Z,25.70
2023-04-18T10:11:44.364Z,25.30
2023-04-18T10:14:14.727Z,25.20
2023-04-18T10:16:45.458Z,25.70
2023-04-18T10:19:26.801Z,26.60
2023-04-18T10:21:59.589Z,27.80
2023-04-18T10:24:49.481Z,28.00
2023-04-18T10:27:17.850Z,27.50
2023-04-18T10:29:54.505Z,27.20
2023-04-18T10:32:25.076Z,26.50
2023-04-18T10:34:56.160Z,25.50
2023-04-18T10:37:26.672Z,25.90
2023-04-18T10:39:54.057Z,26.90
2023-04-18T10:42:47.272Z,27.80
2023-04-18T10:45:19.115Z,28.60
2023-04-18T10:47:46.716Z,28.90
2023-04-18T10:50:14.936Z,29.20
2023-04-18T10:52:42.708Z,29.20
2023-04-18T10:55:17.769Z,28.70
2023-04-18T10:57:49.165Z,28.20
2023-04-18T11:00:18.932Z,27.70
2023-04-18T11:03:04.961Z,27.40
2023-04-18T11:05:32.450Z,27.00
2023-04-18T11:07:59.891Z,26.30
2023-04-18T11:10:28.019Z,25.70
2023-04-18T11:12:56.528Z,25.10
2023-04-18T11:15:25.468Z,24.50
2023-04-18T11:18:01.109Z,23.60
2023-04-18T11:20:30.126Z,23.00
2023-04-18T11:22:59.263Z,22.70
2023-04-18T11:25:32.033Z,22.60
2023-04-18T11:28:01.161Z,22.70
2023-04-18T11:30:36.303Z,22.50
2023-04-18T11:33:08.793Z,22.40
2023-04-18T11:35:46.161Z,22.60
2023-04-18T11:38:15.832Z,22.60
2023-04-18T11:40:50.768Z,22.40
2023-04-18T11:43:24.022Z,22.20
2023-04-18T11:45:52.731Z,22.10
2023-04-18T11:48:20.169Z,22.40
2023-04-18T11:50:47.650Z,22.30
2023-04-18T11:53:15.315Z,22.30
2023-04-18T11:55:55.003Z,22.20
2023-04-18T11:58:31.973Z,22.10
2023-04-18T12:01:00.695Z,21.90
2023-04-18T12:03:29.749Z,22.00
2023-04-18T12:06:03.816Z,22.10
2023-04-18T12:08:32.377Z,22.30
2023-04-18T12:10:59.828Z,22.30
2023-04-18T12:13:32.494Z,22.40
2023-04-18T12:16:02.520Z,22.10
2023-04-18T12:18:30.060Z,22.10
2023-04-18T12:20:58.594Z,22.20
2023-04-18T12:23:35.891Z,22.30
2023-04-18T12:26:04.015Z,22.50
2023-04-18T12:28:32.263Z,22.50
2023-04-18T12:31:00.348Z,22.40
2023-04-18T12:33:27.894Z,22.10
2023-04-18T12:35:56.109Z,22.00
2023-04-18T12:38:24.052Z,22.10
2023-04-18T12:40:52.123Z,22.30
2023-04-18T12:43:19.936Z,22.20
2023-04-18T12:45:47.549Z,22.30
2023-04-18T12:48:15.039Z,22.40
2023-04-18T12:50:42.449Z,22.50
2023-04-18T12:53:10.226Z,22.40
2023-04-18T12:55:37.969Z,22.30
2023-04-18T12:58:05.493Z,22.10
2023-04-18T13:00:33.212Z,22.30
2023-04-18T13:03:00.918Z,22.50
2023-04-18T13:05:33.108Z,22.60
2023-04-18T13:08:15.409Z,22.60
2023-04-18T13:10:44.193Z,22.50
2023-04-18T13:13:11.632Z,22.70
2023-04-18T13:15:39.212Z,22.90
2023-04-18T13:18:06.945Z,22.90
2023-04-18T13:20:34.824Z,23.00
2023-04-18T13:23:05.536Z,23.10
2023-04-18T13:25:33.053Z,23.00
2023-04-18T13:28:01.063Z,22.70
2023-04-18T13:30:28.956Z,22.50
2023-04-18T13:32:56.917Z,22.30
2023-04-18T13:35:24.480Z,22.10
2023-04-18T13:37:52.032Z,22.00
2023-04-18T13:40:19.496Z,21.80
2023-04-18T13:42:46.885Z,21.70
2023-04-18T13:45:14.278Z,21.60
2023-04-18T13:47:41.801Z,21.40
2023-04-18T13:50:09.643Z,21.40
2023-04-18T13:52:37.048Z,21.30
2023-04-18T13:55:04.963Z,21.10
2023-04-18T13:57:33.525Z,21.00
2023-04-18T14:00:01.292Z,20.90
2023-04-18T14:02:39.527Z,20.70
2023-04-18T14:05:07.455Z,20.60
2023-04-18T14:07:35.333Z,20.50
2023-04-18T14:10:02.735Z,20.50
2023-04-18T14:12:30.128Z,20.50
2023-04-18T14:14:57.566Z,20.50
2023-04-18T14:17:24.954Z,20.50
2023-04-18T14:19:52.349Z,20.60
2023-04-18T14:22:19.756Z,20.60
2023-04-18T14:24:47.577Z,20.70
2023-04-18T14:27:15.050Z,20.90
2023-04-18T14:29:42.488Z,21.00
2023-04-18T14:32:09.849Z,21.20
2023-04-18T14:34:38.200Z,21.30
2023-04-18T14:37:06.427Z,21.30
2023-04-18T14:39:33.849Z,21.30
2023-04-18T14:42:01.527Z,21.30
2023-04-18T14:44:30.798Z,21.40
2023-04-18T14:46:58.208Z,21.30
2023-04-18T14:49:25.628Z,21.40
2023-04-18T14:51:53.042Z,21.50
2023-04-18T14:54:20.543Z,21.60
2023-04-18T14:56:47.917Z,21.70
2023-04-18T14:59:16.619Z,21.80
2023-04-18T15:01:44.521Z,21.70
2023-04-18T15:04:12.104Z,21.70
2023-04-18T15:06:39.787Z,21.80
2023-04-18T15:09:07.356Z,21.80
2023-04-18T15:11:34.715Z,21.70
2023-04-18T15:14:02.138Z,21.60
2023-04-18T15:16:29.550Z,21.50
2023-04-18T15:18:56.973Z,21.40
2023-04-18T15:21:24.384Z,21.40
2023-04-18T15:23:51.745Z,21.40
2023-04-18T15:26:19.156Z,21.50
2023-04-18T15:28:46.615Z,21.50
2023-04-18T15:31:15.596Z,21.60
2023-04-18T15:33:43.025Z,21.50
2023-04-18T15:36:10.539Z,21.60
2023-04-18T15:38:37.994Z,21.60
2023-04-18T15:41:05.574Z,21.60
2023-04-18T15:43:32.935Z,21.60
2023-04-18T15:46:00.321Z,21.60
2023-04-18T15:48:34.175Z,21.40
2023-04-18T15:51:01.630Z,21.30
2023-04-18T15:53:29.277Z,21.20
2023-04-18T15:55:57.293Z,21.20
2023-04-18T15:58:27.722Z,21.20
2023-04-18T16:00:55.126Z,21.10
2023-04-18T16:03:24.639Z,21.00
2023-04-18T16:05:52.263Z,21.00
2023-04-18T16:08:19.697Z,20.90
2023-04-18T16:10:47.156Z,20.70
2023-04-18T16:13:14.661Z,20.80
2023-04-18T16:15:42.792Z,20.70
2023-04-18T16:18:10.767Z,20.60
2023-04-18T16:20:38.289Z,20.60
2023-04-18T16:23:05.931Z,20.60
2023-04-18T16:25:33.267Z,20.60
2023-04-18T16:28:00.778Z,20.50
2023-04-18T16:30:28.174Z,20.40
2023-04-18T16:32:55.772Z,20.30
2023-04-18T16:35:23.353Z,20.30
2023-04-18T16:37:50.716Z,20.30
2023-04-18T16:40:18.903Z,20.30
2023-04-18T16:42:46.906Z,20.20
2023-04-18T16:45:14.372Z,20.20
2023-04-18T16:47:41.753Z,20.10
2023-04-18T16:50:09.509Z,20.10
2023-04-18T16:52:36.878Z,20.10
2023-04-18T16:55:05.050Z,20.00
2023-04-18T16:57:32.704Z,19.90
2023-04-18T17:00:02.173Z,19.90
2023-04-18T17:02:29.863Z,20.00
2023-04-18T17:04:57.615Z,19.90
2023-04-18T17:07:25.049Z,19.90
2023-04-18T17:09:54.892Z,19.90
2023-04-18T17:12:22.942Z,19.80
2023-04-18T17:14:50.362Z,19.80
2023-04-18T17:17:17.714Z,19.70
2023-04-18T17:19:46.023Z,19.70
2023-04-18T17:22:13.380Z,19.60
2023-04-18T17:24:40.796Z,19.60
2023-04-18T17:27:08.154Z,19.60
2023-04-18T17:29:35.779Z,19.50
2023-04-18T17:32:03.244Z,19.50
2023-04-18T17:34:30.886Z,19.40
2023-04-18T17:36:58.228Z,19.30
2023-04-18T17:39:25.679Z,19.20
2023-04-18T17:41:53.096Z,19.10
2023-04-18T17:44:20.736Z,19.10
2023-04-18T17:46:49.996Z,19.10
2023-04-18T17:49:17.938Z,19.10
2023-04-18T17:51:45.610Z,19.00
2023-04-18T17:54:13.635Z,19.00
2023-04-18T17:56:41.204Z,18.90
2023-04-18T17:59:09.804Z,18.80
2023-04-18T18:01:38.049Z,18.70
2023-04-18T18:04:05.913Z,18.70
2023-04-18T18:06:33.352Z,18.60
2023-04-18T18:09:00.734Z,18.50
2023-04-18T18:11:28.151Z,18.40
2023-04-18T18:13:57.377Z,18.30
2023-04-18T18:16:25.170Z,18.30
2023-04-18T18:18:52.666Z,18.20
2023-04-18T18:21:20.072Z,18.10
2023-04-18T18:23:47.467Z,18.10
2023-04-18T18:26:15.105Z,18.00
2023-04-18T18:28:42.542Z,17.90
2023-04-18T18:31:09.947Z,17.90
2023-04-18T18:33:37.395Z,17.80
2023-04-18T18:36:05.529Z,17.80
2023-04-18T18:38:32.880Z,17.70
2023-04-18T18:41:03.023Z,17.70
2023-04-18T18:43:31.617Z,17.70
2023-04-18T18:45:59.078Z,17.70
2023-04-18T18:48:29.811Z,17.70
2023-04-18T18:50:58.300Z,17.70
2023-04-18T18:53:27.161Z,17.60
2023-04-18T18:55:55.505Z,17.60
2023-04-18T18:58:23.122Z,17.60
2023-04-18T19:00:51.193Z,17.50
2023-04-18T19:03:21.273Z,17.50
2023-04-18T19:05:49.721Z,17.50
2023-04-18T19:08:17.241Z,17.50
2023-04-18T19:10:44.648Z,17.40
2023-04-18T19:13:12.056Z,17.30
2023-04-18T19:15:39.469Z,17.30
2023-04-18T19:18:06.839Z,17.30
2023-04-18T19:20:34.314Z,17.20
2023-04-18T19:23:01.732Z,17.20
2023-04-18T19:25:29.126Z,17.20
2023-04-18T19:27:56.504Z,17.20
2023-04-18T19:30:24.998Z,17.20
2023-04-18T19:32:52.496Z,17.20
2023-04-18T19:35:19.930Z,17.10
2023-04-18T19:37:47.323Z,16.90
2023-04-18T19:40:14.743Z,16.80
2023-04-18T19:42:42.176Z,16.70
2023-04-18T19:45:11.890Z,16.60
2023-04-18T19:47:39.298Z,16.50
2023-04-18T19:50:07.544Z,16.50
2023-04-18T19:52:35.092Z,16.60
2023-04-18T19:55:02.508Z,16.50
2023-04-18T19:57:29.918Z,16.30
2023-04-18T19:59:57.336Z,16.20
2023-04-18T20:02:24.801Z,16.20
2023-04-18T20:04:52.469Z,16.10
2023-04-18T20:07:20.209Z,16.10
2023-04-18T20:09:47.565Z,16.20
2023-04-18T20:12:14.979Z,16.10
2023-04-18T20:14:42.391Z,16.10
2023-04-18T20:17:09.860Z,16.10
2023-04-18T20:19:37.419Z,16.10
2023-04-18T20:22:05.935Z,16.00
2023-04-18T20:24:34.663Z,15.90
2023-04-18T20:27:02.117Z,15.90
2023-04-18T20:29:29.576Z,15.80
2023-04-18T20:31:57.083Z,15.70
2023-04-18T20:34:24.647Z,15.70
2023-04-18T20:36:52.900Z,15.60
2023-04-18T20:39:20.277Z,15.60
2023-04-18T20:41:51.384Z,15.60
2023-04-18T20:44:22.270Z,15.60
2023-04-18T20:46:51.964Z,15.60
2023-04-18T20:49:19.436Z,15.60
2023-04-18T20:51:46.915Z,15.60
2023-04-18T20:54:14.696Z,15.60
2023-04-18T20:56:42.342Z,15.60
2023-04-18T20:59:09.789Z,15.50
2023-04-18T21:01:37.405Z,15.50
2023-04-18T21:04:05.101Z,15.50
2023-04-18T21:06:32.892Z,15.50
2023-04-18T21:09:00.701Z,15.40
2023-04-18T21:11:28.075Z,15.30
2023-04-18T21:13:55.561Z,15.20
2023-04-18T21:16:24.101Z,15.20
2023-04-18T21:18:53.074Z,15.10
2023-04-18T21:21:20.461Z,15.10
2023-04-18T21:23:47.794Z,15.00
2023-04-18T21:26:15.440Z,15.00
2023-04-18T21:28:59.955Z,15.00
2023-04-18T21:31:30.430Z,15.00
2023-04-18T21:33:59.974Z,14.90
2023-04-18T21:36:28.850Z,14.90
2023-04-18T21:38:57.462Z,14.90
2023-04-18T21:41:25.460Z,14.90
2023-04-18T21:43:53.583Z,14.90
2023-04-18T21:46:21.409Z,14.90
2023-04-18T21:48:49.003Z,14.90
2023-04-18T21:51:17.358Z,14.90
2023-04-18T21:53:45.114Z,14.90
2023-04-18T21:56:12.752Z,14.90
2023-04-18T21:58:40.183Z,14.80
2023-04-18T22:01:07.801Z,14.80
2023-04-18T22:03:37.074Z,14.80
2023-04-18T22:06:04.810Z,14.80
2023-04-18T22:08:32.547Z,14.80
2023-04-18T22:11:00.356Z,14.80
2023-04-18T22:13:33.144Z,14.80
2023-04-18T22:16:04.781Z,14.80
2023-04-18T22:18:37.947Z,14.80
2023-04-18T22:21:06.115Z,14.80
2023-04-18T22:23:33.626Z,14.80
2023-04-18T22:26:01.301Z,14.80
2023-04-18T22:28:28.829Z,14.80
2023-04-18T22:30:56.667Z,14.80
2023-04-18T22:33:24.660Z,14.70
2023-04-18T22:35:53.384Z,14.70
2023-04-18T22:38:20.874Z,14.60
2023-04-18T22:40:48.270Z,14.60
2023-04-18T22:43:15.675Z,14.50
2023-04-18T22:45:43.115Z,14.40
2023-04-18T22:48:12.741Z,14.40
2023-04-18T22:50:43.103Z,14.40
2023-04-18T22:53:11.180Z,14.30
2023-04-18T22:55:40.403Z,14.30
2023-04-18T22:58:08.486Z,14.20
2023-04-18T23:00:36.314Z,14.20
2023-04-18T23:03:04.384Z,14.10
2023-04-18T23:05:32.094Z,14.10
2023-04-18T23:08:00.533Z,14.00
2023-04-18T23:10:28.398Z,14.00
2023-04-18T23:12:56.409Z,13.90
2023-04-18T23:15:24.599Z,13.90
2023-04-18T23:17:54.938Z,13.90
2023-04-18T23:20:24.072Z,13.90
2023-04-18T23:22:51.902Z,13.80
2023-04-18T23:25:22.299Z,13.80
2023-04-18T23:27:49.710Z,13.80
2023-04-18T23:30:17.298Z,13.80
2023-04-18T23:32:44.906Z,13.80
2023-04-18T23:35:12.404Z,13.70
2023-04-18T23:37:39.853Z,13.80
2023-04-18T23:40:08.151Z,13.70
2023-04-18T23:42:35.961Z,13.70
2023-04-18T23:45:04.218Z,13.70
2023-04-18T23:47:31.772Z,13.70
2023-04-18T23:49:59.377Z,13.70
2023-04-18T23:52:26.838Z,13.80
2023-04-18T23:54:54.283Z,13.80
2023-04-18T23:57:21.875Z,13.80
2023-04-18T23:59:49.259Z,13.70
